createdAt,value
2022-10-26T00:01:07.936Z,88.87
2022-10-26T00:03:31.568Z,88.26
2022-10-26T00:05:55.075Z,88.92
2022-10-26T00:08:20.088Z,89.40
2022-10-26T00:10:43.625Z,88.18
2022-10-26T00:13:11.473Z,88.16
2022-10-26T00:15:35.035Z,88.24
2022-10-26T00:17:58.634Z,88.02
2022-10-26T00:20:22.167Z,88.26
2022-10-26T00:22:45.801Z,88.68
2022-10-26T00:25:11.226Z,87.61
2022-10-26T00:27:35.502Z,88.15
2022-10-26T00:29:59.059Z,88.34
2022-10-26T00:32:22.605Z,88.31
2022-10-26T00:34:46.187Z,90.44
2022-10-26T00:37:09.804Z,89.08
2022-10-26T00:39:33.327Z,89.03
2022-10-26T00:41:58.326Z,88.51
2022-10-26T00:45:02.193Z,88.16
2022-10-26T00:47:35.792Z,87.61
2022-10-26T00:50:05.094Z,87.71
2022-10-26T00:52:30.358Z,88.03
2022-10-26T00:54:55.176Z,89.17
2022-10-26T00:57:20.551Z,88.22
2022-10-26T00:59:44.890Z,88.51
2022-10-26T01:02:08.780Z,88.75
2022-10-26T01:04:32.444Z,89.21
2022-10-26T01:06:56.801Z,88.96
2022-10-26T01:09:21.742Z,88.99
2022-10-26T01:11:45.311Z,89.42
2022-10-26T01:14:12.787Z,88.62
2022-10-26T01:16:52.001Z,90.61
2022-10-26T01:20:11.743Z,90.12
2022-10-26T01:22:38.548Z,89.33
2022-10-26T01:25:29.218Z,88.92
2022-10-26T01:27:54.564Z,89.01
2022-10-26T01:30:22.409Z,88.27
2022-10-26T01:32:56.535Z,88.58
2022-10-26T01:35:26.571Z,89.16
2022-10-26T01:38:01.614Z,88.02
2022-10-26T01:40:31.187Z,87.47
2022-10-26T01:42:59.044Z,87.79
2022-10-26T01:45:25.982Z,88.01
2022-10-26T01:47:50.749Z,88.61
2022-10-26T01:50:14.971Z,88.49
2022-10-26T01:52:38.644Z,88.13
2022-10-26T01:55:03.764Z,88.40
2022-10-26T01:57:27.436Z,88.46
2022-10-26T02:00:08.300Z,89.32
2022-10-26T02:03:04.518Z,89.68
2022-10-26T02:05:48.620Z,92.22
2022-10-26T02:08:34.964Z,90.44
2022-10-26T02:11:12.053Z,89.82
2022-10-26T02:13:45.486Z,89.25
2022-10-26T02:16:21.314Z,89.74
2022-10-26T02:18:54.374Z,88.73
2022-10-26T02:21:22.052Z,88.10
2022-10-26T02:23:48.779Z,88.47
2022-10-26T02:26:15.145Z,88.46
2022-10-26T02:28:44.349Z,88.30
2022-10-26T02:31:09.200Z,88.49
2022-10-26T02:33:38.379Z,88.57
2022-10-26T02:36:07.882Z,88.50
2022-10-26T02:38:34.607Z,88.44
2022-10-26T02:40:59.570Z,88.55
2022-10-26T02:43:24.975Z,87.61
2022-10-26T02:45:53.522Z,87.94
2022-10-26T02:48:17.739Z,88.55
2022-10-26T02:50:52.107Z,88.85
2022-10-26T02:53:26.626Z,89.95
2022-10-26T02:55:52.180Z,89.75
2022-10-26T02:58:21.986Z,89.46
2022-10-26T03:00:47.383Z,88.69
2022-10-26T03:03:11.275Z,88.64
2022-10-26T03:05:36.870Z,88.76
2022-10-26T03:08:01.245Z,88.85
2022-10-26T03:10:26.595Z,88.74
2022-10-26T03:12:50.536Z,88.48
2022-10-26T03:15:15.362Z,88.20
2022-10-26T03:17:38.918Z,87.80
2022-10-26T03:20:02.527Z,88.15
2022-10-26T03:22:26.098Z,88.30
2022-10-26T03:24:49.700Z,87.72
2022-10-26T03:27:15.027Z,88.04
2022-10-26T03:29:38.639Z,87.12
2022-10-26T03:32:02.147Z,87.36
2022-10-26T03:34:25.730Z,88.29
2022-10-26T03:36:49.437Z,87.83
2022-10-26T03:39:12.999Z,88.21
2022-10-26T03:41:36.542Z,87.97
2022-10-26T03:44:01.474Z,88.78
2022-10-26T03:46:24.988Z,88.69
2022-10-26T03:48:48.571Z,88.52
2022-10-26T03:51:12.111Z,88.22
2022-10-26T03:53:35.671Z,88.58
2022-10-26T03:55:59.194Z,87.58
2022-10-26T03:58:22.823Z,88.16
2022-10-26T04:00:49.011Z,88.79
2022-10-26T04:03:12.568Z,88.25
2022-10-26T04:05:36.075Z,87.20
2022-10-26T04:08:03.082Z,87.52
2022-10-26T04:10:28.719Z,87.80
2022-10-26T04:12:52.346Z,87.91
2022-10-26T04:15:16.267Z,88.15
2022-10-26T04:17:41.206Z,88.34
2022-10-26T04:20:05.879Z,87.65
2022-10-26T04:22:29.557Z,88.77
2022-10-26T04:24:53.068Z,87.27
2022-10-26T04:27:16.642Z,87.37
2022-10-26T04:29:40.144Z,87.00
2022-10-26T04:32:03.791Z,88.25
2022-10-26T04:34:28.813Z,86.78
2022-10-26T04:36:52.366Z,86.92
2022-10-26T04:39:15.931Z,86.93
2022-10-26T04:41:39.495Z,86.93
2022-10-26T04:44:02.994Z,86.89
2022-10-26T04:46:26.691Z,86.16
2022-10-26T04:48:50.303Z,88.83
2022-10-26T04:51:15.492Z,88.37
2022-10-26T04:53:39.014Z,87.97
2022-10-26T04:56:03.195Z,89.08
2022-10-26T04:58:27.150Z,89.37
2022-10-26T05:00:50.746Z,87.87
2022-10-26T05:03:14.311Z,88.05
2022-10-26T05:05:38.539Z,88.53
2022-10-26T05:08:03.454Z,88.19
2022-10-26T05:10:28.041Z,87.79
2022-10-26T05:12:53.247Z,87.48
2022-10-26T05:15:17.104Z,88.06
2022-10-26T05:17:40.623Z,89.90
2022-10-26T05:20:06.146Z,88.67
2022-10-26T05:22:29.658Z,88.54
2022-10-26T05:24:54.635Z,88.30
2022-10-26T05:27:19.403Z,88.82
2022-10-26T05:29:42.985Z,88.55
2022-10-26T05:32:06.779Z,89.42
2022-10-26T05:34:30.352Z,89.69
2022-10-26T05:36:55.575Z,88.88
2022-10-26T05:39:19.230Z,88.43
2022-10-26T05:41:44.139Z,88.15
2022-10-26T05:44:07.707Z,88.01
2022-10-26T05:46:31.248Z,87.28
2022-10-26T05:48:54.807Z,87.41
2022-10-26T05:51:18.317Z,88.85
2022-10-26T05:53:41.961Z,88.96
2022-10-26T05:56:18.379Z,88.52
2022-10-26T05:58:44.175Z,87.79
2022-10-26T06:01:20.784Z,87.69
2022-10-26T06:04:05.019Z,88.41
2022-10-26T06:06:40.467Z,88.16
2022-10-26T06:09:04.821Z,87.99
2022-10-26T06:11:29.303Z,88.07
2022-10-26T06:14:00.246Z,87.38
2022-10-26T06:16:37.783Z,88.01
2022-10-26T06:19:14.070Z,88.08
2022-10-26T06:21:55.452Z,88.96
2022-10-26T06:24:28.278Z,88.08
2022-10-26T06:27:01.227Z,87.78
2022-10-26T06:29:41.637Z,88.70
2022-10-26T06:32:05.472Z,88.04
2022-10-26T06:34:35.411Z,88.49
2022-10-26T06:37:00.799Z,89.38
2022-10-26T06:39:27.404Z,89.14
2022-10-26T06:41:52.722Z,89.56
2022-10-26T06:44:26.054Z,88.01
2022-10-26T06:46:56.400Z,88.95
2022-10-26T06:49:26.566Z,88.59
2022-10-26T06:51:56.566Z,89.52
2022-10-26T06:54:26.513Z,90.01
2022-10-26T06:56:50.650Z,89.67
2022-10-26T06:59:33.846Z,89.86
2022-10-26T07:01:57.554Z,90.88
2022-10-26T07:04:21.917Z,90.06
2022-10-26T07:06:45.465Z,90.78
2022-10-26T07:09:09.027Z,90.36
2022-10-26T07:11:32.578Z,90.34
2022-10-26T07:13:56.350Z,90.77
2022-10-26T07:16:23.234Z,90.89
2022-10-26T07:18:46.747Z,91.83
2022-10-26T07:21:10.542Z,95.46
2022-10-26T07:23:34.118Z,94.07
2022-10-26T07:26:00.627Z,94.63
2022-10-26T07:28:24.136Z,94.23
2022-10-26T07:30:47.699Z,95.33
2022-10-26T07:33:14.776Z,97.57
2022-10-26T07:35:38.651Z,99.07
2022-10-26T07:38:02.872Z,99.70
2022-10-26T07:40:26.937Z,98.69
2022-10-26T07:42:50.596Z,99.88
2022-10-26T07:45:14.560Z,100.00
2022-10-26T07:47:38.048Z,99.93
2022-10-26T07:50:03.524Z,100.00
2022-10-26T07:52:27.034Z,99.88
2022-10-26T07:54:50.605Z,100.00
2022-10-26T07:57:14.206Z,100.00
2022-10-26T07:59:37.885Z,100.00
2022-10-26T08:02:01.811Z,100.00
2022-10-26T08:04:25.608Z,100.00
2022-10-26T08:06:50.588Z,100.00
2022-10-26T08:09:14.165Z,99.70
2022-10-26T08:11:38.003Z,99.10
2022-10-26T08:14:01.551Z,98.63
2022-10-26T08:16:25.319Z,97.28
2022-10-26T08:18:49.798Z,95.80
2022-10-26T08:21:21.877Z,95.06
2022-10-26T08:23:55.927Z,94.22
2022-10-26T08:26:20.328Z,93.34
2022-10-26T08:28:43.959Z,91.38
2022-10-26T08:31:08.470Z,91.48
2022-10-26T08:33:32.255Z,91.27
2022-10-26T08:35:57.542Z,90.76
2022-10-26T08:38:21.122Z,89.77
2022-10-26T08:40:46.047Z,88.60
2022-10-26T08:43:18.295Z,88.00
2022-10-26T08:45:48.034Z,85.49
2022-10-26T08:48:17.298Z,84.08
2022-10-26T08:50:47.995Z,84.80
2022-10-26T08:53:20.505Z,82.37
2022-10-26T08:55:49.234Z,80.93
2022-10-26T08:58:18.426Z,80.24
2022-10-26T09:00:42.484Z,78.46
2022-10-26T09:03:15.658Z,78.20
2022-10-26T09:05:53.312Z,76.30
2022-10-26T09:08:24.755Z,76.87
2022-10-26T09:11:04.403Z,74.74
2022-10-26T09:13:40.147Z,74.85
2022-10-26T09:16:16.121Z,73.63
2022-10-26T09:18:51.261Z,71.49
2022-10-26T09:21:40.004Z,70.88
2022-10-26T09:24:13.253Z,68.95
2022-10-26T09:26:55.014Z,69.05
2022-10-26T09:29:18.779Z,68.97
2022-10-26T09:31:47.036Z,66.10
2022-10-26T09:34:20.906Z,67.76
2022-10-26T09:36:44.444Z,63.71
2022-10-26T09:39:20.620Z,64.40
2022-10-26T09:41:51.336Z,62.64
2022-10-26T09:44:27.188Z,65.00
2022-10-26T09:46:59.406Z,60.30
2022-10-26T09:49:31.059Z,59.48
2022-10-26T09:51:54.675Z,59.99
2022-10-26T09:54:20.209Z,59.86
2022-10-26T09:56:46.492Z,58.40
2022-10-26T09:59:13.179Z,58.76
2022-10-26T10:01:41.400Z,58.69
2022-10-26T10:04:21.248Z,58.57
2022-10-26T10:06:46.288Z,58.00
2022-10-26T10:09:14.088Z,56.77
2022-10-26T10:11:42.542Z,58.65
2022-10-26T10:14:11.066Z,59.51
2022-10-26T10:16:34.730Z,58.48
2022-10-26T10:19:01.033Z,59.36
2022-10-26T10:21:37.118Z,57.81
2022-10-26T10:24:00.715Z,57.87
2022-10-26T10:26:24.294Z,58.69
2022-10-26T10:29:00.168Z,58.95
2022-10-26T10:31:30.989Z,58.17
2022-10-26T10:33:54.635Z,56.75
2022-10-26T10:36:22.077Z,57.94
2022-10-26T10:38:48.158Z,56.96
2022-10-26T10:41:21.516Z,57.01
2022-10-26T10:43:48.336Z,56.96
2022-10-26T10:46:19.484Z,57.82
2022-10-26T10:48:49.704Z,59.43
2022-10-26T10:51:13.554Z,60.12
2022-10-26T10:53:45.816Z,61.23
2022-10-26T10:56:34.338Z,62.10
2022-10-26T10:59:28.740Z,61.56
2022-10-26T11:02:12.143Z,60.92
2022-10-26T11:04:58.511Z,59.76
2022-10-26T11:07:25.761Z,60.01
2022-10-26T11:12:22.576Z,58.64
2022-10-26T11:14:50.556Z,59.27
2022-10-26T11:17:21.074Z,60.00
2022-10-26T11:19:51.336Z,58.44
2022-10-26T11:22:18.787Z,61.46
2022-10-26T11:24:48.464Z,57.99
2022-10-26T11:27:18.016Z,58.46
2022-10-26T11:29:51.280Z,61.06
2022-10-26T11:32:22.818Z,60.55
2022-10-26T11:34:53.656Z,58.22
2022-10-26T11:37:25.749Z,59.96
2022-10-26T11:40:03.160Z,59.02
2022-10-26T11:42:35.127Z,59.19
2022-10-26T11:45:05.526Z,59.77
2022-10-26T11:47:38.988Z,59.80
2022-10-26T11:50:12.186Z,61.09
2022-10-26T11:52:45.606Z,60.20
2022-10-26T11:55:12.052Z,59.45
2022-10-26T11:57:38.201Z,60.18
2022-10-26T12:00:05.615Z,61.35
2022-10-26T12:02:30.659Z,59.81
2022-10-26T12:04:59.312Z,62.75
2022-10-26T12:07:30.774Z,62.27
2022-10-26T12:09:55.866Z,60.80
2022-10-26T12:12:30.708Z,62.16
2022-10-26T12:15:06.603Z,61.20
2022-10-26T12:17:37.438Z,63.13
2022-10-26T12:20:11.909Z,62.32
2022-10-26T12:22:40.922Z,60.58
2022-10-26T12:25:20.970Z,61.30
2022-10-26T12:27:56.487Z,61.19
2022-10-26T12:30:32.872Z,61.19
2022-10-26T12:32:57.735Z,62.17
2022-10-26T12:35:40.761Z,61.50
2022-10-26T12:39:00.167Z,61.33
2022-10-26T12:41:26.160Z,62.41
2022-10-26T12:43:50.115Z,60.79
2022-10-26T12:46:45.573Z,62.10
2022-10-26T12:50:00.655Z,62.42
2022-10-26T12:52:50.228Z,63.25
2022-10-26T12:55:57.146Z,63.78
2022-10-26T12:59:06.034Z,61.96
2022-10-26T13:02:00.557Z,61.38
2022-10-26T13:05:26.138Z,61.03
2022-10-26T13:07:50.999Z,62.13
2022-10-26T13:10:24.467Z,62.44
2022-10-26T13:12:54.002Z,62.95
2022-10-26T13:15:25.660Z,61.38
2022-10-26T13:18:11.099Z,61.62
2022-10-26T13:20:37.664Z,62.74
2022-10-26T13:25:32.587Z,63.52
2022-10-26T13:28:05.675Z,63.93
2022-10-26T13:30:48.808Z,62.36
2022-10-26T13:33:27.646Z,62.82
2022-10-26T13:35:57.359Z,62.89
2022-10-26T13:38:24.708Z,64.09
2022-10-26T13:40:49.167Z,64.08
2022-10-26T13:43:21.796Z,63.82
2022-10-26T13:45:55.663Z,64.63
2022-10-26T13:48:28.379Z,64.44
2022-10-26T13:53:28.859Z,64.34
2022-10-26T13:55:56.002Z,63.57
2022-10-26T13:58:29.753Z,65.92
2022-10-26T14:01:06.233Z,64.83
2022-10-26T14:03:30.172Z,64.22
2022-10-26T14:05:54.068Z,64.83
2022-10-26T14:08:20.853Z,63.92
2022-10-26T14:10:48.586Z,65.26
2022-10-26T14:13:18.205Z,65.04
2022-10-26T14:15:46.303Z,65.58
2022-10-26T14:18:18.748Z,66.37
2022-10-26T14:20:42.347Z,65.38
2022-10-26T14:23:05.834Z,65.92
2022-10-26T14:25:42.680Z,66.02
2022-10-26T14:28:27.378Z,65.75
2022-10-26T14:30:52.640Z,65.42
2022-10-26T14:33:21.239Z,66.74
2022-10-26T14:35:44.942Z,66.94
2022-10-26T14:38:18.514Z,67.70
2022-10-26T14:40:42.495Z,68.35
2022-10-26T14:43:07.607Z,67.44
2022-10-26T14:45:47.969Z,67.70
2022-10-26T14:48:25.537Z,68.36
2022-10-26T14:51:03.590Z,68.23
2022-10-26T14:53:36.075Z,68.39
2022-10-26T14:56:00.187Z,69.11
2022-10-26T15:01:27.511Z,70.55
2022-10-26T15:03:58.346Z,70.37
2022-10-26T15:06:43.021Z,70.01
2022-10-26T15:09:07.927Z,69.90
2022-10-26T15:11:33.659Z,71.32
2022-10-26T15:13:58.576Z,71.88
2022-10-26T15:16:24.886Z,73.01
2022-10-26T15:18:54.031Z,72.18
2022-10-26T15:21:25.774Z,73.95
2022-10-26T15:23:49.729Z,75.10
2022-10-26T15:26:13.951Z,75.08
2022-10-26T15:28:43.312Z,73.83
2022-10-26T15:31:26.130Z,76.85
2022-10-26T15:34:17.623Z,75.92
2022-10-26T15:36:42.671Z,75.29
2022-10-26T15:39:06.250Z,75.35
2022-10-26T15:41:32.989Z,76.77
2022-10-26T15:43:58.866Z,76.56
2022-10-26T15:46:23.688Z,76.84
2022-10-26T15:48:55.540Z,77.22
2022-10-26T15:51:20.458Z,77.74
2022-10-26T15:53:44.247Z,77.36
2022-10-26T15:56:16.939Z,78.35
2022-10-26T15:58:40.534Z,78.23
2022-10-26T16:01:04.093Z,78.55
2022-10-26T16:03:28.375Z,78.19
2022-10-26T16:05:58.044Z,78.67
2022-10-26T16:08:23.050Z,79.11
2022-10-26T16:10:47.410Z,80.26
2022-10-26T16:13:15.306Z,79.67
2022-10-26T16:15:39.097Z,80.64
2022-10-26T16:18:02.662Z,81.38
2022-10-26T16:20:27.671Z,81.46
2022-10-26T16:22:53.158Z,81.40
2022-10-26T16:25:21.439Z,81.63
2022-10-26T16:27:45.315Z,81.01
2022-10-26T16:30:10.420Z,81.16
2022-10-26T16:32:34.021Z,81.75
2022-10-26T16:34:57.547Z,81.77
2022-10-26T16:37:21.078Z,81.69
2022-10-26T16:39:44.640Z,82.83
2022-10-26T16:42:09.743Z,82.34
2022-10-26T16:44:33.264Z,81.83
2022-10-26T16:46:56.844Z,82.58
2022-10-26T16:49:20.354Z,81.46
2022-10-26T16:51:43.947Z,81.25
2022-10-26T16:54:07.771Z,83.52
2022-10-26T16:56:32.147Z,81.80
2022-10-26T16:58:57.662Z,83.05
2022-10-26T17:01:22.570Z,84.37
2022-10-26T17:03:46.333Z,82.62
2022-10-26T17:06:09.912Z,81.98
2022-10-26T17:08:36.049Z,81.40
2022-10-26T17:11:05.987Z,82.53
2022-10-26T17:13:29.565Z,82.55
2022-10-26T17:15:54.499Z,83.08
2022-10-26T17:18:18.047Z,82.62
2022-10-26T17:20:42.060Z,81.22
2022-10-26T17:23:05.850Z,82.42
2022-10-26T17:25:29.374Z,83.21
2022-10-26T17:27:53.167Z,83.46
2022-10-26T17:30:16.956Z,83.97
2022-10-26T17:32:41.951Z,84.40
2022-10-26T17:35:06.382Z,82.85
2022-10-26T17:39:58.483Z,84.07
2022-10-26T17:42:22.060Z,83.42
2022-10-26T17:44:45.616Z,82.10
2022-10-26T17:47:09.906Z,81.97
2022-10-26T17:49:36.271Z,82.84
2022-10-26T17:52:00.006Z,82.47
2022-10-26T17:54:23.515Z,82.00
2022-10-26T17:56:48.021Z,82.36
2022-10-26T17:59:13.904Z,82.55
2022-10-26T18:01:37.506Z,84.01
2022-10-26T18:04:01.050Z,83.41
2022-10-26T18:06:26.566Z,83.18
2022-10-26T18:08:50.203Z,81.79
2022-10-26T18:11:19.127Z,81.42
2022-10-26T18:13:45.335Z,82.53
2022-10-26T18:16:12.137Z,82.27
2022-10-26T18:18:37.066Z,83.33
2022-10-26T18:21:04.717Z,86.16
2022-10-26T18:23:29.667Z,86.75
2022-10-26T18:26:04.635Z,83.66
2022-10-26T18:28:30.459Z,82.61
2022-10-26T18:30:53.988Z,83.33
2022-10-26T18:33:19.786Z,82.95
2022-10-26T18:35:43.367Z,82.53
2022-10-26T18:38:06.924Z,85.89
2022-10-26T18:40:31.860Z,84.28
2022-10-26T18:42:55.444Z,86.75
2022-10-26T18:45:19.038Z,84.50
2022-10-26T18:47:42.700Z,85.65
2022-10-26T18:50:07.435Z,85.95
2022-10-26T18:52:30.986Z,85.37
2022-10-26T18:54:54.933Z,85.03
2022-10-26T18:57:21.483Z,85.29
2022-10-26T18:59:44.992Z,83.43
2022-10-26T19:02:11.382Z,83.54
2022-10-26T19:04:34.949Z,83.57
2022-10-26T19:06:58.536Z,84.58
2022-10-26T19:09:22.130Z,85.24
2022-10-26T19:11:46.364Z,83.60
2022-10-26T19:14:12.407Z,82.73
2022-10-26T19:16:46.377Z,83.05
2022-10-26T19:19:10.954Z,83.37
2022-10-26T19:21:34.856Z,83.22
2022-10-26T19:24:01.323Z,83.37
2022-10-26T19:26:31.778Z,83.28
2022-10-26T19:29:02.175Z,83.72
2022-10-26T19:31:28.552Z,83.97
2022-10-26T19:33:52.323Z,84.10
2022-10-26T19:36:15.859Z,84.41
2022-10-26T19:38:39.829Z,84.10
2022-10-26T19:41:06.055Z,84.42
2022-10-26T19:43:32.027Z,84.26
2022-10-26T19:45:55.608Z,83.09
2022-10-26T19:48:20.619Z,83.95
2022-10-26T19:50:49.954Z,84.15
2022-10-26T19:53:17.334Z,84.12
2022-10-26T19:55:44.416Z,83.28
2022-10-26T19:58:08.011Z,84.69
2022-10-26T20:00:35.732Z,84.57
2022-10-26T20:02:59.396Z,84.42
2022-10-26T20:05:24.360Z,85.42
2022-10-26T20:07:47.915Z,84.52
2022-10-26T20:10:11.658Z,84.74
2022-10-26T20:12:35.299Z,84.51
2022-10-26T20:14:58.822Z,84.80
2022-10-26T20:17:25.070Z,85.24
2022-10-26T20:19:51.120Z,85.67
2022-10-26T20:22:16.129Z,85.04
2022-10-26T20:24:39.631Z,85.09
2022-10-26T20:27:03.247Z,84.93
2022-10-26T20:29:26.734Z,85.18
2022-10-26T20:31:55.189Z,84.96
2022-10-26T20:34:19.602Z,84.67
2022-10-26T20:36:43.223Z,85.45
2022-10-26T20:39:09.274Z,85.81
2022-10-26T20:41:33.482Z,86.61
2022-10-26T20:43:58.178Z,86.02
2022-10-26T20:46:25.047Z,86.46
2022-10-26T20:48:49.479Z,85.50
2022-10-26T20:51:22.348Z,86.66
2022-10-26T20:53:54.162Z,86.67
2022-10-26T20:56:25.093Z,87.99
2022-10-26T20:58:53.082Z,85.46
2022-10-26T21:01:24.825Z,87.48
2022-10-26T21:03:48.456Z,86.44
2022-10-26T21:06:13.206Z,85.96
2022-10-26T21:08:36.826Z,86.09
2022-10-26T21:11:01.279Z,86.68
2022-10-26T21:13:27.592Z,86.74
2022-10-26T21:15:51.130Z,86.35
2022-10-26T21:18:14.787Z,86.53
2022-10-26T21:20:38.354Z,86.55
2022-10-26T21:23:01.974Z,86.03
2022-10-26T21:25:25.564Z,86.26
2022-10-26T21:27:49.350Z,85.61
2022-10-26T21:30:15.037Z,86.01
2022-10-26T21:32:38.855Z,86.66
2022-10-26T21:35:02.374Z,86.95
2022-10-26T21:37:27.398Z,86.66
2022-10-26T21:39:50.899Z,86.51
2022-10-26T21:42:14.471Z,86.78
2022-10-26T21:44:41.284Z,86.18
2022-10-26T21:47:06.986Z,86.47
2022-10-26T21:49:30.615Z,88.69
2022-10-26T21:51:54.239Z,87.01
2022-10-26T21:54:17.748Z,87.26
2022-10-26T21:56:41.329Z,86.27
2022-10-26T21:59:05.882Z,86.79
2022-10-26T22:01:29.674Z,87.14
2022-10-26T22:03:54.699Z,87.65
2022-10-26T22:08:49.212Z,88.11
2022-10-26T22:11:15.935Z,87.41
2022-10-26T22:13:39.847Z,87.78
2022-10-26T22:16:06.410Z,88.21
2022-10-26T22:18:29.992Z,88.31
2022-10-26T22:20:59.048Z,87.23
2022-10-26T22:23:22.600Z,87.59
2022-10-26T22:25:46.171Z,87.65
2022-10-26T22:28:09.723Z,87.22
2022-10-26T22:30:33.261Z,87.52
2022-10-26T22:32:56.829Z,87.13
2022-10-26T22:35:35.599Z,87.74
2022-10-26T22:38:00.631Z,87.48
2022-10-26T22:40:24.150Z,87.08
2022-10-26T22:42:47.931Z,87.78
2022-10-26T22:45:12.062Z,87.53
2022-10-26T22:47:35.671Z,87.84
2022-10-26T22:49:59.219Z,87.35
2022-10-26T22:52:23.070Z,88.15
2022-10-26T22:54:48.071Z,88.96
2022-10-26T22:57:11.627Z,87.90
2022-10-26T22:59:35.165Z,88.04
2022-10-26T23:01:58.820Z,88.45
2022-10-26T23:04:22.426Z,88.84
2022-10-26T23:06:46.109Z,88.21
2022-10-26T23:09:09.877Z,87.66
2022-10-26T23:11:34.965Z,88.07
2022-10-26T23:14:00.652Z,87.32
2022-10-26T23:16:24.635Z,88.24
2022-10-26T23:18:48.866Z,86.84
2022-10-26T23:21:13.653Z,87.00
2022-10-26T23:23:37.897Z,86.89
2022-10-26T23:26:02.263Z,86.62
2022-10-26T23:28:27.160Z,86.97
2022-10-26T23:30:50.738Z,87.57
2022-10-26T23:33:14.348Z,87.88
2022-10-26T23:35:37.892Z,87.71
2022-10-26T23:38:01.630Z,87.90
2022-10-26T23:40:25.350Z,87.00
2022-10-26T23:42:49.221Z,86.70
2022-10-26T23:45:14.598Z,87.47
2022-10-26T23:47:38.091Z,87.32
2022-10-26T23:50:01.702Z,87.24
2022-10-26T23:52:25.309Z,87.26
2022-10-26T23:57:17.270Z,87.10
2022-10-26T23:59:40.842Z,86.70
